Time;durP1;ratioP1;P1;durP2;ratioP2;P2;SDS_P1;SDS_P2;PMS_P1;PMS_P2;Temp;Humidity;BMP_temperature;BMP_pressure;BME280_temperature;BME280_humidity;BME280_pressure;Samples;Min_cycle;Max_cycle;Signal;HPM_P1;HPM_P2
2023/07/21 00:01:06;;;;;;;4.87;2.40;;;18.90;62.80;;;;;;5033600;28;20475;-79
2023/07/21 00:03:33;;;;;;;4.60;2.67;;;18.80;63.10;;;;;;5033213;28;20833;-78
2023/07/21 00:06:00;;;;;;;4.57;2.40;;;18.80;63.10;;;;;;5024488;28;20455;-79
2023/07/21 00:08:28;;;;;;;4.80;2.50;;;18.80;62.80;;;;;;5024803;28;20851;-80
2023/07/21 00:10:57;;;;;;;5.20;2.43;;;18.90;61.30;;;;;;5020093;28;20817;-81
2023/07/21 00:13:24;;;;;;;5.70;2.47;;;18.90;62.00;;;;;;5016625;28;21011;-78
2023/07/21 00:15:49;;;;;;;4.27;2.50;;;18.90;61.60;;;;;;5031280;28;20494;-80
2023/07/21 00:18:16;;;;;;;12.30;3.83;;;18.90;62.60;;;;;;5022992;28;20487;-79
2023/07/21 00:20:42;;;;;;;5.20;2.93;;;18.90;62.90;;;;;;5022325;28;20241;-78
2023/07/21 00:23:08;;;;;;;4.47;3.00;;;19.00;63.20;;;;;;5029289;28;20443;-78
2023/07/21 00:25:34;;;;;;;4.83;2.70;;;19.10;63.40;;;;;;5034248;28;20423;-78
2023/07/21 00:27:59;;;;;;;5.57;2.40;;;19.20;62.60;;;;;;5027000;28;20194;-78
2023/07/21 00:30:25;;;;;;;4.50;2.50;;;19.20;62.80;;;;;;5031258;28;20826;-78
2023/07/21 00:32:51;;;;;;;3.67;2.40;;;19.10;62.90;;;;;;5029598;28;20641;-78
2023/07/21 00:35:16;;;;;;;3.70;2.20;;;19.00;63.10;;;;;;5039872;28;20729;-80
2023/07/21 00:37:42;;;;;;;4.83;2.37;;;19.00;63.10;;;;;;5042758;28;20249;-79
2023/07/21 00:40:18;;;;;;;4.30;2.30;;;19.00;63.10;;;;;;5029173;28;20229;-78
2023/07/21 00:42:44;;;;;;;3.80;2.40;;;19.00;63.20;;;;;;5035443;28;20206;-82
2023/07/21 00:45:13;;;;;;;4.33;2.53;;;18.90;63.50;;;;;;5028682;28;20433;-79
2023/07/21 00:47:39;;;;;;;4.27;2.60;;;18.70;63.40;;;;;;5030250;28;20209;-78
2023/07/21 00:50:05;;;;;;;5.27;2.30;;;18.70;63.70;;;;;;5032698;28;20464;-77
2023/07/21 00:52:31;;;;;;;4.47;2.60;;;18.70;63.10;;;;;;5033404;28;20458;-76
2023/07/21 00:54:57;;;;;;;6.87;2.60;;;18.70;62.80;;;;;;5035459;28;20441;-77
2023/07/21 00:57:24;;;;;;;10.53;2.43;;;18.80;62.20;;;;;;5039395;28;20197;-76
2023/07/21 00:59:50;;;;;;;4.27;2.20;;;18.80;62.00;;;;;;5034735;28;20254;-77
2023/07/21 01:02:17;;;;;;;3.10;2.10;;;18.80;62.00;;;;;;5038738;28;20516;-79
2023/07/21 01:04:44;;;;;;;4.07;2.70;;;18.80;61.90;;;;;;5037501;28;20822;-77
2023/07/21 01:07:10;;;;;;;3.43;1.97;;;18.80;61.70;;;;;;5046906;28;20458;-78
2023/07/21 01:09:37;;;;;;;5.40;2.60;;;18.90;61.60;;;;;;5046305;28;20436;-76
2023/07/21 01:12:07;;;;;;;4.10;2.20;;;18.80;61.70;;;;;;5043351;28;20446;-77
2023/07/21 01:14:36;;;;;;;4.37;2.43;;;18.90;61.50;;;;;;5035882;28;20428;-79
2023/07/21 01:17:02;;;;;;;3.50;2.60;;;18.80;61.50;;;;;;5044498;28;20482;-77
2023/07/21 01:19:29;;;;;;;5.20;2.30;;;18.90;61.00;;;;;;5034041;28;20473;-78
2023/07/21 01:22:09;;;;;;;4.90;2.23;;;18.90;61.20;;;;;;5025621;28;20454;-77
2023/07/21 01:24:50;;;;;;;3.60;2.23;;;18.90;61.20;;;;;;5035920;28;20435;-78
2023/07/21 01:27:21;;;;;;;4.20;2.17;;;18.90;61.00;;;;;;5039845;28;20480;-77
2023/07/21 01:29:47;;;;;;;3.87;2.30;;;18.90;60.60;;;;;;5029070;28;20544;-77
2023/07/21 01:32:18;;;;;;;3.23;2.30;;;18.90;60.90;;;;;;5020220;28;20526;-76
2023/07/21 01:34:44;;;;;;;5.50;2.50;;;18.90;60.40;;;;;;5032151;28;20933;-77
2023/07/21 01:37:12;;;;;;;3.40;2.20;;;18.90;60.00;;;;;;5033000;28;20437;-77
2023/07/21 01:39:39;;;;;;;3.77;1.80;;;18.90;59.50;;;;;;5039607;28;20450;-77
2023/07/21 01:42:06;;;;;;;3.23;1.80;;;18.90;59.50;;;;;;5029847;28;20439;-77
2023/07/21 01:44:32;;;;;;;3.47;2.10;;;18.90;59.50;;;;;;5035406;28;20432;-77
2023/07/21 01:46:58;;;;;;;4.93;2.20;;;18.90;59.50;;;;;;5032342;28;20465;-76
2023/07/21 01:49:23;;;;;;;4.07;2.63;;;19.00;61.70;;;;;;5030149;28;20244;-79
2023/07/21 01:51:52;;;;;;;4.53;2.20;;;19.00;62.20;;;;;;5034568;28;20209;-78
2023/07/21 01:54:25;;;;;;;4.23;2.13;;;19.00;62.80;;;;;;5039900;28;20192;-78
2023/07/21 01:57:06;;;;;;;5.87;2.50;;;18.90;63.20;;;;;;5037232;28;20445;-77
2023/07/21 01:59:32;;;;;;;4.80;2.70;;;18.80;63.40;;;;;;5029862;28;20493;-77
2023/07/21 02:01:59;;;;;;;5.07;2.30;;;18.70;63.10;;;;;;5019105;28;20755;-77
2023/07/21 02:04:25;;;;;;;6.43;2.90;;;18.80;63.20;;;;;;5028668;28;20195;-78
2023/07/21 02:06:51;;;;;;;5.10;2.53;;;18.80;62.50;;;;;;5028634;28;20885;-77
2023/07/21 02:09:17;;;;;;;3.70;2.60;;;18.80;62.20;;;;;;5033290;28;20437;-76
2023/07/21 02:11:44;;;;;;;3.93;2.07;;;18.80;62.80;;;;;;5023488;28;20219;-76
2023/07/21 02:14:10;;;;;;;7.70;2.70;;;18.90;62.00;;;;;;5026036;28;20432;-76
2023/07/21 02:16:37;;;;;;;4.87;2.70;;;19.00;62.30;;;;;;5029274;28;20443;-77
2023/07/21 02:19:05;;;;;;;6.43;2.70;;;19.00;62.90;;;;;;5033564;28;20231;-79
2023/07/21 02:21:31;;;;;;;4.93;2.60;;;19.10;62.60;;;;;;5030976;28;20594;-80
2023/07/21 02:23:57;;;;;;;3.53;2.33;;;19.20;62.20;;;;;;5031056;28;20538;-75
2023/07/21 02:26:22;;;;;;;3.30;2.10;;;19.10;61.90;;;;;;5033414;28;20193;-77
2023/07/21 02:28:48;;;;;;;5.07;2.47;;;19.10;61.20;;;;;;5039873;28;20291;-81
2023/07/21 02:31:13;;;;;;;3.93;2.53;;;19.00;61.30;;;;;;5044289;28;20215;-79
2023/07/21 02:33:39;;;;;;;3.73;2.20;;;19.00;61.50;;;;;;5040682;28;20180;-81
2023/07/21 02:36:06;;;;;;;3.37;1.67;;;19.00;60.70;;;;;;5049888;28;20208;-79
2023/07/21 02:38:32;;;;;;;5.83;2.60;;;19.00;60.60;;;;;;5042841;28;20323;-78
2023/07/21 02:41:04;;;;;;;3.40;2.13;;;18.90;61.60;;;;;;5040959;28;20455;-80
2023/07/21 02:43:31;;;;;;;3.57;2.30;;;19.10;61.30;;;;;;5028413;28;20215;-80
2023/07/21 02:45:57;;;;;;;4.03;2.03;;;19.20;62.50;;;;;;5032377;28;20423;-79
2023/07/21 02:48:22;;;;;;;3.77;2.37;;;19.20;62.20;;;;;;5029143;28;20430;-79
2023/07/21 02:50:50;;;;;;;3.80;2.07;;;19.10;62.80;;;;;;5026679;28;20611;-78
2023/07/21 02:53:16;;;;;;;4.00;2.10;;;19.00;63.10;;;;;;5021084;28;20234;-77
2023/07/21 02:55:43;;;;;;;4.10;2.73;;;18.90;63.20;;;;;;5031519;28;20526;-78
2023/07/21 02:58:11;;;;;;;6.13;2.40;;;18.90;62.80;;;;;;5035661;28;20513;-78
2023/07/21 03:00:37;;;;;;;4.17;2.70;;;19.00;62.80;;;;;;5025962;28;20469;-79
2023/07/21 03:03:03;;;;;;;5.17;2.27;;;18.90;63.20;;;;;;5026003;28;20434;-79
2023/07/21 03:05:29;;;;;;;4.97;2.50;;;18.90;63.70;;;;;;5037914;28;20445;-78
2023/07/21 03:07:57;;;;;;;4.33;2.13;;;18.90;63.80;;;;;;5044298;28;20431;-77
2023/07/21 03:10:23;;;;;;;3.33;2.20;;;18.70;64.50;;;;;;5038853;28;20532;-77
2023/07/21 03:12:49;;;;;;;8.60;2.47;;;18.80;64.70;;;;;;5036831;28;20433;-78
2023/07/21 03:15:15;;;;;;;5.30;2.87;;;18.70;64.80;;;;;;5027775;28;20225;-77
2023/07/21 03:17:41;;;;;;;3.63;2.57;;;18.80;64.80;;;;;;5026951;28;20477;-78
2023/07/21 03:20:11;;;;;;;4.10;2.30;;;18.80;64.20;;;;;;5020907;28;20218;-77
2023/07/21 03:22:44;;;;;;;5.50;2.30;;;18.80;64.20;;;;;;5022712;28;20477;-78
2023/07/21 03:25:10;;;;;;;5.90;2.60;;;18.70;64.80;;;;;;5030511;28;20453;-77
2023/07/21 03:27:38;;;;;;;2.63;2.10;;;18.50;64.70;;;;;;5027378;28;20434;-77
2023/07/21 03:30:09;;;;;;;5.73;2.67;;;18.40;65.00;;;;;;5024032;28;20459;-78
2023/07/21 03:32:35;;;;;;;3.20;2.23;;;18.40;64.20;;;;;;5036252;28;20914;-78
2023/07/21 03:35:04;;;;;;;4.97;2.07;;;18.50;63.90;;;;;;5036663;28;20465;-78
2023/07/21 03:37:31;;;;;;;3.57;2.20;;;18.60;63.70;;;;;;5035554;28;20439;-77
2023/07/21 03:39:57;;;;;;;5.30;2.57;;;18.60;63.20;;;;;;5029406;28;20490;-77
2023/07/21 03:42:23;;;;;;;4.30;2.57;;;18.60;62.60;;;;;;5022241;28;20418;-79
2023/07/21 03:44:51;;;;;;;5.83;2.50;;;18.70;62.60;;;;;;5032087;28;20441;-77
2023/07/21 03:47:19;;;;;;;4.03;2.80;;;18.80;63.50;;;;;;5032624;28;21034;-77
2023/07/21 03:49:46;;;;;;;8.20;2.93;;;18.70;64.40;;;;;;5041906;28;20962;-77
2023/07/21 03:52:13;;;;;;;4.33;2.40;;;18.70;63.70;;;;;;5031433;28;20434;-76
2023/07/21 03:54:39;;;;;;;3.00;2.33;;;18.80;62.90;;;;;;5033277;28;20453;-79
2023/07/21 03:57:04;;;;;;;3.73;2.40;;;18.80;62.90;;;;;;5036627;28;20428;-78
2023/07/21 03:59:30;;;;;;;3.67;2.43;;;18.80;62.90;;;;;;5036384;28;20484;-78
2023/07/21 04:01:56;;;;;;;3.67;2.10;;;18.80;62.90;;;;;;5023462;28;20208;-77
2023/07/21 04:04:22;;;;;;;3.23;2.57;;;18.80;62.80;;;;;;5025822;28;20489;-78
2023/07/21 04:06:47;;;;;;;3.53;1.90;;;18.80;62.30;;;;;;5035653;28;20224;-78
2023/07/21 04:09:13;;;;;;;2.30;2.03;;;18.90;61.70;;;;;;5027864;28;20199;-80
2023/07/21 04:11:40;;;;;;;4.80;2.40;;;18.80;61.20;;;;;;5020302;28;20239;-77
2023/07/21 04:14:05;;;;;;;5.80;2.60;;;18.80;60.60;;;;;;5022112;28;20202;-78
2023/07/21 04:16:31;;;;;;;3.53;2.20;;;18.90;60.60;;;;;;5029030;28;20517;-78
2023/07/21 04:18:57;;;;;;;2.80;2.40;;;18.90;60.70;;;;;;5028018;28;20750;-78
2023/07/21 04:21:22;;;;;;;3.83;2.00;;;18.90;61.00;;;;;;5025441;28;20199;-78
2023/07/21 04:23:48;;;;;;;4.63;2.90;;;18.80;61.20;;;;;;5028813;28;20203;-78
2023/07/21 04:26:15;;;;;;;3.40;2.20;;;18.80;61.70;;;;;;5033092;28;20229;-78
2023/07/21 04:28:42;;;;;;;6.90;2.60;;;18.80;62.50;;;;;;5033664;28;20880;-77
2023/07/21 04:31:11;;;;;;;4.67;2.40;;;18.90;63.10;;;;;;5026313;28;20467;-76
2023/07/21 04:33:38;;;;;;;7.20;3.03;;;18.90;63.10;;;;;;5034145;28;20430;-76
2023/07/21 04:36:04;;;;;;;4.20;2.57;;;18.70;63.50;;;;;;5035924;28;20482;-76
2023/07/21 04:38:30;;;;;;;4.53;2.53;;;18.60;63.70;;;;;;5035388;28;20816;-77
2023/07/21 04:40:56;;;;;;;5.30;2.50;;;18.60;63.70;;;;;;5030936;28;20460;-77
2023/07/21 04:43:22;;;;;;;5.83;2.50;;;18.50;63.70;;;;;;5029440;28;20435;-77
2023/07/21 04:45:47;;;;;;;6.57;2.30;;;18.40;64.10;;;;;;5033861;28;20206;-77
2023/07/21 04:48:13;;;;;;;5.23;3.07;;;18.30;64.70;;;;;;5033562;28;20186;-77
2023/07/21 04:50:42;;;;;;;5.63;3.03;;;18.30;65.00;;;;;;5026270;28;20371;-78
2023/07/21 04:53:08;;;;;;;5.63;2.53;;;18.30;65.10;;;;;;5029436;28;20237;-73
2023/07/21 04:55:34;;;;;;;4.77;2.67;;;18.40;65.00;;;;;;5032415;28;20515;-73
2023/07/21 04:58:01;;;;;;;4.63;2.40;;;18.40;65.00;;;;;;5031450;28;20572;-72
2023/07/21 05:00:27;;;;;;;3.87;2.53;;;18.50;64.70;;;;;;5026970;28;20472;-71
2023/07/21 05:02:53;;;;;;;4.73;2.70;;;18.50;64.70;;;;;;5024864;28;20811;-74
2023/07/21 05:05:18;;;;;;;6.00;2.87;;;18.60;64.40;;;;;;5028980;28;20424;-73
2023/07/21 05:07:44;;;;;;;4.90;2.80;;;18.60;64.50;;;;;;5024549;28;20203;-73
2023/07/21 05:10:10;;;;;;;5.43;2.80;;;18.70;64.50;;;;;;5029399;28;20247;-73
2023/07/21 05:12:36;;;;;;;5.10;2.57;;;18.70;64.10;;;;;;5029962;28;20282;-72
2023/07/21 05:15:02;;;;;;;4.27;2.23;;;18.80;63.80;;;;;;5031520;28;20186;-76
2023/07/21 05:17:28;;;;;;;5.57;2.73;;;18.80;64.10;;;;;;5030576;28;20197;-76
2023/07/21 05:19:53;;;;;;;8.80;2.87;;;18.80;64.10;;;;;;5034617;28;20469;-77
2023/07/21 05:22:19;;;;;;;6.10;3.13;;;18.70;64.70;;;;;;5027139;28;20198;-81
2023/07/21 05:24:45;;;;;;;7.33;3.10;;;18.80;64.20;;;;;;5037655;28;20542;-79
2023/07/21 05:27:11;;;;;;;4.13;2.70;;;19.00;63.80;;;;;;5031650;28;20199;-78
2023/07/21 05:29:37;;;;;;;4.53;2.57;;;19.10;63.70;;;;;;5036570;28;20189;-80
2023/07/21 05:32:05;;;;;;;5.93;2.80;;;19.20;63.40;;;;;;5027928;28;20955;-77
2023/07/21 05:34:32;;;;;;;3.97;2.50;;;19.30;62.60;;;;;;5036466;28;20200;-77
2023/07/21 05:36:58;;;;;;;4.10;2.50;;;19.40;62.60;;;;;;5038278;28;20440;-79
2023/07/21 05:39:24;;;;;;;6.87;3.20;;;19.60;61.70;;;;;;5037196;28;20503;-79
2023/07/21 05:41:49;;;;;;;11.67;3.90;;;19.70;61.70;;;;;;5027928;28;20294;-77
2023/07/21 05:44:15;;;;;;;5.67;2.70;;;19.60;62.00;;;;;;5036637;28;20259;-78
2023/07/21 05:46:41;;;;;;;4.23;3.03;;;19.60;62.50;;;;;;5046593;28;20215;-76
2023/07/21 05:49:07;;;;;;;6.07;3.17;;;19.90;61.90;;;;;;5033702;28;20700;-80
2023/07/21 05:51:33;;;;;;;3.80;2.77;;;20.00;61.50;;;;;;5023025;28;20213;-79
2023/07/21 05:53:59;;;;;;;5.50;2.87;;;19.90;61.30;;;;;;5028017;28;20428;-78
2023/07/21 05:56:25;;;;;;;4.93;3.30;;;20.00;61.20;;;;;;5038969;28;20197;-78
2023/07/21 05:58:50;;;;;;;5.00;3.00;;;20.20;60.70;;;;;;5028829;28;20574;-76
2023/07/21 06:01:16;;;;;;;6.60;2.90;;;20.20;60.90;;;;;;5019956;28;20205;-79
2023/07/21 06:03:42;;;;;;;6.93;3.50;;;20.10;61.30;;;;;;5020719;28;20191;-77
2023/07/21 06:06:09;;;;;;;4.90;2.80;;;20.10;60.90;;;;;;5027395;28;20204;-78
2023/07/21 06:08:35;;;;;;;6.10;3.20;;;20.30;60.60;;;;;;5032016;28;20541;-78
2023/07/21 06:11:02;;;;;;;5.20;3.40;;;20.60;59.90;;;;;;5024274;28;20474;-78
2023/07/21 06:13:29;;;;;;;6.67;3.50;;;20.80;58.80;;;;;;5026754;28;20182;-77
2023/07/21 06:15:56;;;;;;;4.63;2.70;;;21.00;58.20;;;;;;5031603;28;20509;-77
2023/07/21 06:18:21;;;;;;;4.87;2.83;;;21.10;57.60;;;;;;5028826;28;20477;-77
2023/07/21 06:20:50;;;;;;;5.30;3.07;;;21.10;57.70;;;;;;5028975;28;20477;-79
2023/07/21 06:23:16;;;;;;;4.93;2.60;;;21.20;56.00;;;;;;5016541;28;20489;-79
2023/07/21 06:25:41;;;;;;;7.07;2.90;;;21.20;56.20;;;;;;5026531;28;20429;-78
2023/07/21 06:28:07;;;;;;;4.17;2.80;;;21.30;56.20;;;;;;5035905;28;20562;-78
2023/07/21 06:30:33;;;;;;;5.57;2.57;;;21.30;55.60;;;;;;5039666;28;20210;-77
2023/07/21 06:32:59;;;;;;;5.80;2.90;;;21.30;56.00;;;;;;5032258;28;20516;-77
2023/07/21 06:35:25;;;;;;;3.50;2.70;;;21.50;55.70;;;;;;5029760;28;20462;-79
2023/07/21 06:37:50;;;;;;;6.77;2.50;;;21.70;54.40;;;;;;5031194;28;20828;-78
2023/07/21 06:40:17;;;;;;;5.20;2.60;;;21.70;54.50;;;;;;5029796;28;20215;-79
2023/07/21 06:42:44;;;;;;;5.73;2.90;;;21.90;53.60;;;;;;5026512;28;20189;-80
2023/07/21 06:45:11;;;;;;;4.10;2.37;;;22.00;53.40;;;;;;5028721;28;20433;-78
2023/07/21 06:47:37;;;;;;;6.13;2.93;;;22.20;53.30;;;;;;5030375;28;20443;-77
2023/07/21 06:50:03;;;;;;;6.57;2.83;;;22.20;53.20;;;;;;5023971;28;20489;-79
2023/07/21 06:52:30;;;;;;;6.20;2.33;;;22.30;52.80;;;;;;5026244;28;20427;-79
2023/07/21 06:54:58;;;;;;;4.93;2.97;;;22.40;52.10;;;;;;5027187;28;20963;-79
2023/07/21 06:57:24;;;;;;;4.60;2.67;;;22.00;52.90;;;;;;5029909;28;20427;-78
2023/07/21 06:59:49;;;;;;;12.83;4.67;;;21.70;53.60;;;;;;5035806;28;20570;-81
2023/07/21 07:02:15;;;;;;;10.87;4.30;;;21.50;56.20;;;;;;5034059;28;20470;-78
2023/07/21 07:04:41;;;;;;;8.73;3.53;;;21.40;57.20;;;;;;5031085;28;20188;-78
2023/07/21 07:07:07;;;;;;;9.30;4.40;;;21.80;56.80;;;;;;5020690;28;20960;-79
2023/07/21 07:09:33;;;;;;;8.67;4.20;;;21.70;57.30;;;;;;5031426;28;20208;-80
2023/07/21 07:11:59;;;;;;;4.20;2.70;;;21.80;57.30;;;;;;5022809;28;20454;-82
2023/07/21 07:14:24;;;;;;;5.37;2.60;;;21.30;54.50;;;;;;5032755;28;20204;-78
2023/07/21 07:16:50;;;;;;;6.40;3.10;;;21.10;55.40;;;;;;5029221;28;20188;-78
2023/07/21 07:19:17;;;;;;;8.00;2.80;;;21.20;56.10;;;;;;5034694;28;20221;-80
2023/07/21 07:21:42;;;;;;;4.80;3.00;;;21.20;55.60;;;;;;5029539;28;20206;-79
2023/07/21 07:24:09;;;;;;;6.37;2.60;;;21.00;56.20;;;;;;5035768;28;20989;-79
2023/07/21 07:26:35;;;;;;;5.40;2.70;;;21.00;55.70;;;;;;5033328;28;20656;-79
2023/07/21 07:29:03;;;;;;;5.67;2.63;;;20.90;56.20;;;;;;5034624;28;20441;-80
2023/07/21 07:31:32;;;;;;;5.63;2.43;;;21.00;56.10;;;;;;5026979;28;20214;-79
2023/07/21 07:33:58;;;;;;;5.40;2.50;;;21.10;56.00;;;;;;5021297;28;20909;-81
2023/07/21 07:36:24;;;;;;;4.30;2.40;;;20.90;56.00;;;;;;5026617;28;20438;-79
2023/07/21 07:38:50;;;;;;;5.20;2.30;;;20.80;56.40;;;;;;5026460;28;20489;-80
2023/07/21 07:41:17;;;;;;;5.07;2.87;;;20.90;56.60;;;;;;5022376;28;20203;-79
2023/07/21 07:43:43;;;;;;;6.80;3.20;;;21.10;56.50;;;;;;5019441;28;20203;-78
2023/07/21 07:46:09;;;;;;;7.37;2.70;;;21.10;56.60;;;;;;5024645;28;20436;-78
2023/07/21 07:48:35;;;;;;;7.70;2.77;;;20.90;57.20;;;;;;5030475;28;20665;-78
2023/07/21 07:51:05;;;;;;;7.33;3.13;;;21.10;56.60;;;;;;5031519;28;20238;-78
2023/07/21 07:53:35;;;;;;;5.20;2.50;;;21.30;56.60;;;;;;5027605;28;20504;-78
2023/07/21 07:56:02;;;;;;;4.60;2.50;;;21.40;56.20;;;;;;5030191;28;20434;-78
2023/07/21 07:58:27;;;;;;;5.90;3.30;;;21.90;55.30;;;;;;5031466;28;20839;-77
2023/07/21 08:00:57;;;;;;;4.83;2.67;;;22.10;54.10;;;;;;5024598;28;20471;-77
2023/07/21 08:03:24;;;;;;;9.63;3.43;;;22.20;52.90;;;;;;5029896;28;20178;-77
2023/07/21 08:05:50;;;;;;;3.53;2.30;;;22.00;53.40;;;;;;5033265;28;20438;-77
2023/07/21 08:08:18;;;;;;;4.53;2.87;;;21.70;54.50;;;;;;5036515;28;20814;-78
2023/07/21 08:10:44;;;;;;;5.87;2.40;;;21.60;55.20;;;;;;5033980;28;20479;-76
2023/07/21 08:13:10;;;;;;;9.87;2.57;;;21.60;55.40;;;;;;5047281;28;20441;-76
2023/07/21 08:15:42;;;;;;;12.83;2.70;;;21.30;56.20;;;;;;5050290;28;20543;-76
2023/07/21 08:18:10;;;;;;;15.67;2.80;;;21.40;56.60;;;;;;5047811;28;20474;-77
2023/07/21 08:20:37;;;;;;;6.00;3.37;;;21.30;56.60;;;;;;5041085;28;20575;-77
2023/07/21 08:23:03;;;;;;;5.23;2.73;;;21.30;55.70;;;;;;5030981;28;20505;-77
2023/07/21 08:25:29;;;;;;;5.93;3.10;;;21.30;55.70;;;;;;5040502;28;20442;-77
2023/07/21 08:27:54;;;;;;;3.73;2.50;;;21.20;54.90;;;;;;5043386;28;20205;-77
2023/07/21 08:30:20;;;;;;;8.00;3.23;;;21.40;55.40;;;;;;5036027;28;20205;-77
2023/07/21 08:32:46;;;;;;;5.23;2.90;;;21.50;55.20;;;;;;5033957;28;20298;-77
2023/07/21 08:35:12;;;;;;;5.43;3.20;;;21.70;54.60;;;;;;5032760;28;20475;-78
2023/07/21 08:37:38;;;;;;;6.63;2.50;;;21.70;54.40;;;;;;5042929;28;20326;-78
2023/07/21 08:40:05;;;;;;;7.20;3.57;;;21.80;54.60;;;;;;5029783;28;20751;-78
2023/07/21 08:42:34;;;;;;;4.83;2.80;;;22.00;53.70;;;;;;5037091;28;20435;-78
2023/07/21 08:45:04;;;;;;;3.47;2.50;;;22.10;53.60;;;;;;5031301;28;20459;-78
2023/07/21 08:47:31;;;;;;;6.67;3.03;;;22.30;52.90;;;;;;5028689;28;20847;-78
2023/07/21 08:49:57;;;;;;;5.10;2.77;;;22.50;52.20;;;;;;5029403;28;20521;-76
2023/07/21 08:52:23;;;;;;;3.90;2.43;;;22.60;51.60;;;;;;5031134;28;20891;-77
2023/07/21 08:54:49;;;;;;;3.30;2.20;;;22.70;51.40;;;;;;5031407;28;20511;-78
2023/07/21 08:57:15;;;;;;;3.50;2.03;;;22.50;50.10;;;;;;5038493;28;20459;-77
2023/07/21 08:59:41;;;;;;;8.00;2.50;;;22.60;50.30;;;;;;5033783;28;20223;-79
2023/07/21 09:02:08;;;;;;;2.93;2.00;;;22.60;49.30;;;;;;5033339;28;20872;-80
2023/07/21 09:04:33;;;;;;;3.77;2.27;;;22.80;49.10;;;;;;5035341;28;20955;-78
2023/07/21 09:07:01;;;;;;;4.50;1.93;;;22.70;49.50;;;;;;5026025;28;20444;-78
2023/07/21 09:09:32;;;;;;;3.03;2.03;;;22.60;49.80;;;;;;5034333;28;20216;-79
2023/07/21 09:12:09;;;;;;;7.53;3.27;;;22.70;48.90;;;;;;5036646;28;20484;-80
2023/07/21 09:14:35;;;;;;;3.00;2.27;;;22.50;48.60;;;;;;5032371;28;20480;-78
2023/07/21 09:17:04;;;;;;;4.03;2.07;;;22.80;48.10;;;;;;5021522;28;20436;-79
2023/07/21 09:19:34;;;;;;;3.13;1.80;;;22.80;47.40;;;;;;5016721;28;20490;-78
2023/07/21 09:22:00;;;;;;;4.10;2.30;;;22.90;47.00;;;;;;5022822;28;20462;-79
2023/07/21 09:24:25;;;;;;;8.10;2.30;;;22.80;47.90;;;;;;5031247;28;20417;-78
2023/07/21 09:27:12;;;;;;;5.40;2.00;;;22.70;47.50;;;;;;5034524;28;20186;-78
2023/07/21 09:29:39;;;;;;;3.13;2.20;;;22.70;47.90;;;;;;5022758;28;20212;-78
2023/07/21 09:32:15;;;;;;;5.63;2.33;;;22.90;47.90;;;;;;5023515;28;20450;-79
2023/07/21 09:35:04;;;;;;;5.63;2.67;;;23.10;45.90;;;;;;5036208;28;20449;-80
2023/07/21 09:37:33;;;;;;;2.80;2.10;;;22.90;46.30;;;;;;5035617;28;20437;-78
2023/07/21 09:40:05;;;;;;;6.80;2.30;;;23.30;46.60;;;;;;5029622;28;20827;-80
2023/07/21 09:42:32;;;;;;;4.63;2.13;;;23.70;45.30;;;;;;5029216;28;20430;-81
2023/07/21 09:44:58;;;;;;;2.50;1.53;;;23.80;44.10;;;;;;5039638;28;20438;-79
2023/07/21 09:47:25;;;;;;;5.00;2.20;;;23.40;44.30;;;;;;5041270;28;20452;-79
2023/07/21 09:49:53;;;;;;;3.80;2.17;;;23.20;44.90;;;;;;5031273;28;20462;-78
2023/07/21 09:52:20;;;;;;;2.70;1.90;;;23.70;44.30;;;;;;5034523;28;20430;-79
2023/07/21 09:54:58;;;;;;;6.17;2.30;;;24.00;45.00;;;;;;5033941;28;20457;-78
2023/07/21 09:57:27;;;;;;;3.30;2.10;;;24.00;44.50;;;;;;5031834;28;20510;-78
2023/07/21 09:59:57;;;;;;;3.90;1.90;;;24.30;44.50;;;;;;5028514;28;20484;-78
2023/07/21 10:02:25;;;;;;;4.23;2.40;;;24.50;42.80;;;;;;5023617;28;20456;-79
2023/07/21 10:04:51;;;;;;;4.07;1.97;;;23.90;45.30;;;;;;5022952;28;20440;-80
2023/07/21 10:07:16;;;;;;;4.50;2.33;;;23.90;45.80;;;;;;5024608;28;20463;-82
2023/07/21 10:09:44;;;;;;;2.60;1.60;;;24.00;45.10;;;;;;5024503;28;20250;-78
2023/07/21 10:12:10;;;;;;;3.60;2.10;;;24.20;44.20;;;;;;5032608;28;20202;-76
2023/07/21 10:14:38;;;;;;;2.80;1.90;;;23.90;43.90;;;;;;5032500;28;20475;-78
2023/07/21 10:17:06;;;;;;;4.20;2.40;;;23.80;44.60;;;;;;5034742;28;20517;-77
2023/07/21 10:19:42;;;;;;;4.33;2.10;;;23.90;44.60;;;;;;5033495;28;20570;-77
2023/07/21 10:22:22;;;;;;;4.70;2.43;;;24.10;43.70;;;;;;5023208;28;20502;-76
2023/07/21 10:24:51;;;;;;;4.33;2.53;;;24.20;43.70;;;;;;5031106;28;20456;-77
2023/07/21 10:27:24;;;;;;;4.40;2.13;;;24.00;44.30;;;;;;5029107;28;20420;-77
2023/07/21 10:29:53;;;;;;;3.80;2.20;;;24.40;43.70;;;;;;5026704;28;20444;-78
2023/07/21 10:32:24;;;;;;;4.63;2.10;;;24.60;43.50;;;;;;5023788;28;20443;-79
2023/07/21 10:34:51;;;;;;;3.20;2.23;;;24.60;42.30;;;;;;5029015;28;20994;-77
2023/07/21 10:37:17;;;;;;;3.50;1.83;;;24.10;43.00;;;;;;5031239;28;20461;-79
2023/07/21 10:39:53;;;;;;;3.87;2.43;;;23.50;44.50;;;;;;5028577;28;20584;-76
2023/07/21 10:42:18;;;;;;;3.57;2.47;;;23.90;44.20;;;;;;5021747;28;20666;-77
2023/07/21 10:44:46;;;;;;;3.00;2.23;;;24.00;43.70;;;;;;5033366;28;20441;-78
2023/07/21 10:47:19;;;;;;;5.00;2.50;;;23.90;44.10;;;;;;5031116;28;20231;-76
2023/07/21 10:49:46;;;;;;;5.53;2.43;;;23.90;43.80;;;;;;5025523;28;20998;-78
2023/07/21 10:52:12;;;;;;;8.30;2.30;;;24.10;43.70;;;;;;5034435;28;20441;-78
2023/07/21 10:54:41;;;;;;;4.20;2.27;;;24.30;43.20;;;;;;5033669;28;20450;-77
2023/07/21 10:57:08;;;;;;;3.80;2.50;;;24.50;42.70;;;;;;5034556;28;20190;-78
2023/07/21 10:59:37;;;;;;;9.40;2.20;;;24.30;42.40;;;;;;5037510;28;20509;-77
2023/07/21 11:02:06;;;;;;;4.10;2.10;;;24.00;43.20;;;;;;5029015;28;20458;-78
2023/07/21 11:04:32;;;;;;;4.10;2.47;;;23.90;43.90;;;;;;5039882;28;20455;-77
2023/07/21 11:06:59;;;;;;;2.70;2.03;;;24.60;42.80;;;;;;5030944;28;20849;-77
2023/07/21 11:09:27;;;;;;;2.83;1.77;;;25.10;42.00;;;;;;5041955;28;20609;-78
2023/07/21 11:11:57;;;;;;;3.97;2.43;;;25.50;41.20;;;;;;5031602;28;20588;-79
2023/07/21 11:14:26;;;;;;;4.40;2.00;;;25.60;40.20;;;;;;5028805;28;20426;-78
2023/07/21 11:17:00;;;;;;;3.67;2.30;;;25.70;40.30;;;;;;5034567;28;20437;-77
2023/07/21 11:19:27;;;;;;;5.10;2.43;;;26.10;40.00;;;;;;5030985;28;20831;-77
2023/07/21 11:24:32;;;;;;;3.73;2.63;;;26.40;39.90;;;;;;5045072;28;20468;-77
2023/07/21 11:27:07;;;;;;;4.67;2.60;;;26.20;39.60;;;;;;5054076;28;20529;-79
2023/07/21 11:29:42;;;;;;;4.00;2.30;;;25.90;40.60;;;;;;5050483;28;20815;-78
2023/07/21 11:32:24;;;;;;;5.20;2.37;;;25.60;41.00;;;;;;5019520;28;20482;-77
2023/07/21 11:34:57;;;;;;;5.10;2.60;;;26.20;40.20;;;;;;5025569;28;20959;-75
2023/07/21 11:37:23;;;;;;;4.00;2.30;;;25.90;40.40;;;;;;5023417;28;20510;-78
2023/07/21 11:39:56;;;;;;;5.53;2.87;;;25.20;41.90;;;;;;5025567;28;20995;-77
2023/07/21 11:42:22;;;;;;;5.50;2.83;;;25.20;42.30;;;;;;5015631;28;20181;-76
2023/07/21 11:44:48;;;;;;;3.43;2.50;;;25.10;42.00;;;;;;5021780;28;20442;-77
2023/07/21 11:47:14;;;;;;;6.20;2.43;;;24.80;42.40;;;;;;5030864;28;20420;-76
2023/07/21 11:49:45;;;;;;;4.43;2.30;;;24.70;43.00;;;;;;5031283;28;20191;-77
2023/07/21 11:52:24;;;;;;;2.93;2.00;;;24.50;43.80;;;;;;5018929;28;20440;-76
2023/07/21 11:54:51;;;;;;;7.37;2.87;;;24.80;43.40;;;;;;5033132;28;20423;-77
2023/07/21 11:57:18;;;;;;;6.80;2.30;;;24.40;43.50;;;;;;5040155;28;20459;-78
2023/07/21 11:59:44;;;;;;;5.00;2.70;;;24.20;44.30;;;;;;5031054;28;20518;-76
2023/07/21 12:02:14;;;;;;;3.73;2.40;;;24.10;45.00;;;;;;5028179;28;20442;-78
2023/07/21 12:04:39;;;;;;;5.57;2.53;;;24.00;45.40;;;;;;5032208;28;20446;-77
2023/07/21 12:07:08;;;;;;;8.40;2.80;;;24.10;45.70;;;;;;5033033;28;20436;-76
2023/07/21 12:09:34;;;;;;;3.90;2.53;;;24.00;46.90;;;;;;5025575;28;20606;-78
2023/07/21 12:11:59;;;;;;;3.17;2.20;;;23.90;47.80;;;;;;5024359;28;20456;-77
2023/07/21 12:14:25;;;;;;;4.40;2.43;;;24.30;46.60;;;;;;5024551;28;20428;-76
2023/07/21 12:16:56;;;;;;;4.17;2.60;;;24.60;45.40;;;;;;5032804;28;20278;-76
2023/07/21 12:19:25;;;;;;;3.90;2.37;;;24.90;45.10;;;;;;5023608;28;20242;-77
2023/07/21 12:21:51;;;;;;;4.03;2.43;;;25.00;45.50;;;;;;5021527;28;20537;-77
2023/07/21 12:24:18;;;;;;;4.00;2.10;;;25.20;45.50;;;;;;5027329;28;20459;-77
2023/07/21 12:26:44;;;;;;;5.37;2.97;;;25.30;46.90;;;;;;5033250;28;20452;-76
2023/07/21 12:29:09;;;;;;;4.57;2.40;;;25.30;49.10;;;;;;5031521;28;21014;-77
2023/07/21 12:31:35;;;;;;;4.97;2.83;;;25.10;50.10;;;;;;5023384;28;20210;-77
2023/07/21 12:34:01;;;;;;;6.83;2.33;;;25.00;50.50;;;;;;5030278;28;20190;-78
2023/07/21 12:36:28;;;;;;;4.70;3.07;;;24.80;50.90;;;;;;5023400;28;20218;-77
2023/07/21 12:38:54;;;;;;;3.30;2.53;;;24.80;53.20;;;;;;5025510;28;20768;-77
2023/07/21 12:41:20;;;;;;;4.30;2.47;;;24.80;53.30;;;;;;5024073;28;20476;-77
2023/07/21 12:43:45;;;;;;;4.17;2.80;;;24.60;53.40;;;;;;5018538;28;20202;-77
2023/07/21 12:46:14;;;;;;;3.53;2.67;;;24.60;54.20;;;;;;5033401;28;20189;-78
2023/07/21 12:48:41;;;;;;;3.53;2.23;;;24.50;55.20;;;;;;5031881;28;20249;-77